Time;durP1;ratioP1;P1;durP2;ratioP2;P2;SDS_P1;SDS_P2;PMS_P1;PMS_P2;Temp;Humidity;BMP_temperature;BMP_pressure;BME280_temperature;BME280_humidity;BME280_pressure;Samples;Min_cycle;Max_cycle;Signal;HPM_P1;HPM_P2
2022/09/17 00:01:16;;;;;;;3.58;1.50;;;20.90;61.50;;;;;;5023050;28;43383;-60
2022/09/17 00:03:44;;;;;;;4.25;2.10;;;20.90;61.40;;;;;;5014014;28;43417;-60
2022/09/17 00:06:12;;;;;;;3.85;1.80;;;20.90;61.40;;;;;;5022781;28;44664;-59
2022/09/17 00:08:40;;;;;;;3.10;1.45;;;20.90;61.30;;;;;;5022431;28;43805;-60
2022/09/17 00:11:20;;;;;;;4.93;1.85;;;20.80;61.50;;;;;;5022191;28;43594;-60
2022/09/17 00:13:49;;;;;;;3.85;1.95;;;20.80;61.50;;;;;;5023137;28;43477;-60
2022/09/17 00:16:35;;;;;;;3.63;1.80;;;20.90;61.50;;;;;;5022488;28;43802;-60
2022/09/17 00:19:04;;;;;;;3.85;1.65;;;20.80;61.50;;;;;;5021955;28;44002;-60
2022/09/17 00:21:32;;;;;;;4.18;1.63;;;20.80;61.50;;;;;;5022641;28;43373;-60
2022/09/17 00:24:03;;;;;;;3.95;1.80;;;20.80;61.50;;;;;;5023179;28;43531;-60
2022/09/17 00:26:32;;;;;;;2.60;1.38;;;20.80;61.60;;;;;;5021396;28;44819;-60
2022/09/17 00:29:00;;;;;;;3.25;1.52;;;20.80;61.60;;;;;;5022713;28;43704;-59
2022/09/17 00:31:29;;;;;;;3.42;1.63;;;20.80;61.50;;;;;;5022730;28;43452;-60
2022/09/17 00:34:01;;;;;;;3.75;1.60;;;20.80;61.50;;;;;;5022015;28;43593;-60
2022/09/17 00:36:29;;;;;;;4.20;2.22;;;20.70;61.50;;;;;;5020392;28;43888;-60
2022/09/17 00:38:58;;;;;;;3.08;1.40;;;20.70;61.50;;;;;;5020356;28;43423;-60
2022/09/17 00:41:29;;;;;;;4.07;1.70;;;20.70;61.50;;;;;;5018151;28;43483;-60
2022/09/17 00:43:59;;;;;;;;;;;20.70;61.50;;;;;;5022355;28;43552;-60
2022/09/17 00:46:44;;;;;;;4.43;1.70;;;20.70;61.60;;;;;;5021209;28;44699;-60
2022/09/17 00:49:21;;;;;;;3.70;1.70;;;20.70;61.60;;;;;;5010200;28;43925;-60
2022/09/17 00:52:29;;;;;;;4.95;2.42;;;20.70;61.70;;;;;;5022195;28;43317;-60
2022/09/17 00:55:19;;;;;;;3.00;1.58;;;20.70;61.60;;;;;;5020572;28;43469;-60
2022/09/17 00:57:49;;;;;;;3.77;1.60;;;20.70;61.60;;;;;;5025008;28;44842;-60
2022/09/17 01:00:17;;;;;;;3.25;1.67;;;20.60;61.60;;;;;;5021308;28;43866;-59
2022/09/17 01:02:45;;;;;;;4.10;1.73;;;20.70;61.60;;;;;;5021947;28;43486;-60
2022/09/17 01:05:13;;;;;;;2.83;1.80;;;20.60;61.60;;;;;;5022259;28;43485;-60
2022/09/17 01:07:59;;;;;;;4.55;1.83;;;20.70;61.60;;;;;;5021044;28;44794;-60
2022/09/17 01:11:13;;;;;;;4.35;2.08;;;20.60;61.50;;;;;;5021300;28;43507;-60
2022/09/17 01:14:07;;;;;;;3.00;1.77;;;20.60;61.50;;;;;;5020813;28;43577;-60
2022/09/17 01:16:44;;;;;;;4.75;2.15;;;20.60;61.60;;;;;;5011185;28;43505;-59
2022/09/17 01:19:39;;;;;;;3.70;1.65;;;20.60;61.50;;;;;;5021859;28;43808;-60
2022/09/17 01:22:29;;;;;;;3.20;1.50;;;20.60;61.50;;;;;;5021316;28;44110;-60
2022/09/17 01:25:14;;;;;;;4.47;1.80;;;20.60;61.50;;;;;;5025010;28;43394;-60
2022/09/17 01:28:00;;;;;;;2.97;1.70;;;20.50;61.50;;;;;;5025374;28;43514;-60
2022/09/17 01:30:34;;;;;;;2.33;1.50;;;20.50;61.60;;;;;;5022917;28;44810;-59
2022/09/17 01:33:36;;;;;;;3.72;1.40;;;20.50;61.60;;;;;;5025350;28;43440;-60
2022/09/17 01:36:25;;;;;;;3.85;2.03;;;20.50;61.50;;;;;;5027144;28;43573;-60
2022/09/17 01:39:06;;;;;;;3.67;1.63;;;20.50;61.50;;;;;;5025329;28;43435;-59
2022/09/17 01:41:55;;;;;;;4.00;1.77;;;20.50;61.60;;;;;;5024842;28;44804;-59
2022/09/17 01:44:27;;;;;;;2.75;1.80;;;20.50;61.50;;;;;;5022935;28;43425;-60
2022/09/17 01:47:09;;;;;;;3.80;1.73;;;20.50;61.60;;;;;;5024904;28;43419;-59
2022/09/17 01:49:38;;;;;;;3.95;1.88;;;20.50;61.60;;;;;;5023891;28;43440;-59
2022/09/17 01:52:10;;;;;;;2.95;1.40;;;20.50;61.50;;;;;;5024868;28;43804;-59
2022/09/17 01:54:46;;;;;;;3.67;1.70;;;20.50;61.60;;;;;;5024358;28;43344;-60
2022/09/17 01:57:27;;;;;;;3.70;1.50;;;20.50;61.50;;;;;;5024116;28;43490;-60
2022/09/17 01:59:58;;;;;;;4.43;1.83;;;20.50;61.50;;;;;;5025244;28;43507;-59
2022/09/17 02:02:45;;;;;;;3.05;1.70;;;20.50;61.50;;;;;;5024871;28;43807;-59
2022/09/17 02:05:29;;;;;;;2.47;1.55;;;20.50;61.40;;;;;;5023880;28;43456;-60
2022/09/17 02:08:04;;;;;;;2.58;1.48;;;20.40;61.40;;;;;;5024957;28;43424;-59
2022/09/17 02:10:41;;;;;;;3.45;1.52;;;20.40;61.50;;;;;;5023734;28;43360;-60
2022/09/17 02:13:18;;;;;;;3.53;1.70;;;20.40;61.50;;;;;;5024502;28;44085;-59
2022/09/17 02:15:53;;;;;;;2.80;1.70;;;20.40;61.40;;;;;;5024245;28;43839;-60
2022/09/17 02:18:48;;;;;;;4.40;1.60;;;20.50;61.40;;;;;;5023514;28;43431;-59
2022/09/17 02:21:54;;;;;;;2.50;1.48;;;20.40;61.30;;;;;;5024335;28;43431;-59
2022/09/17 02:24:26;;;;;;;3.38;1.70;;;20.40;61.30;;;;;;5017133;28;43912;-59
2022/09/17 02:27:12;;;;;;;3.17;1.75;;;20.40;61.30;;;;;;5024144;28;43456;-60
2022/09/17 02:29:42;;;;;;;3.10;1.55;;;20.40;61.40;;;;;;5023330;28;43494;-59
2022/09/17 02:32:11;;;;;;;3.20;1.50;;;20.40;61.40;;;;;;5023724;28;43391;-59
2022/09/17 02:34:38;;;;;;;3.72;1.55;;;20.30;61.30;;;;;;5023406;28;44074;-59
2022/09/17 02:37:07;;;;;;;3.33;1.40;;;20.40;61.40;;;;;;5024293;28;43434;-59
2022/09/17 02:39:35;;;;;;;2.58;1.50;;;20.40;61.40;;;;;;5023523;28;43502;-59
2022/09/17 02:42:22;;;;;;;4.18;1.77;;;20.30;61.20;;;;;;5020520;28;43593;-59
2022/09/17 02:45:11;;;;;;;3.60;1.67;;;20.30;61.30;;;;;;5023134;28;45154;-60
2022/09/17 02:48:07;;;;;;;4.63;1.83;;;20.30;61.40;;;;;;5022862;28;44025;-59
2022/09/17 02:51:07;;;;;;;4.28;1.90;;;20.30;61.40;;;;;;5024006;28;43431;-59
2022/09/17 02:54:15;;;;;;;2.78;1.60;;;20.30;61.40;;;;;;5014447;28;43464;-59
2022/09/17 02:56:53;;;;;;;1.98;1.42;;;20.30;61.50;;;;;;5020795;28;43726;-59
2022/09/17 02:59:30;;;;;;;4.25;1.70;;;20.20;61.40;;;;;;5024636;28;43567;-59
2022/09/17 03:01:57;;;;;;;2.85;1.67;;;20.30;61.50;;;;;;5024715;28;43471;-59
2022/09/17 03:04:28;;;;;;;3.35;1.60;;;20.20;61.40;;;;;;5023551;28;43597;-59
2022/09/17 03:06:58;;;;;;;3.08;1.58;;;20.30;61.50;;;;;;5022823;28;44649;-60
2022/09/17 03:09:25;;;;;;;3.67;1.70;;;20.20;61.30;;;;;;5023343;28;43992;-59
2022/09/17 03:11:53;;;;;;;4.03;1.67;;;20.30;61.40;;;;;;5024157;28;43400;-59
2022/09/17 03:14:20;;;;;;;2.63;1.40;;;20.20;61.40;;;;;;5021956;28;43461;-59
2022/09/17 03:16:48;;;;;;;2.95;1.60;;;20.30;61.40;;;;;;5023052;28;44735;-59
2022/09/17 03:19:15;;;;;;;2.90;1.30;;;20.20;61.30;;;;;;5023455;28;43345;-59
2022/09/17 03:21:42;;;;;;;2.25;1.27;;;20.20;61.40;;;;;;5023254;28;43396;-59
2022/09/17 03:24:10;;;;;;;4.68;1.70;;;20.20;61.30;;;;;;5023577;28;43486;-59
2022/09/17 03:26:39;;;;;;;4.75;1.80;;;20.30;61.30;;;;;;5022975;28;44042;-59
2022/09/17 03:29:06;;;;;;;3.15;1.38;;;20.20;61.30;;;;;;5023103;28;43667;-59
2022/09/17 03:31:34;;;;;;;3.85;1.88;;;20.20;61.30;;;;;;5022743;28;43463;-59
2022/09/17 03:34:01;;;;;;;3.28;1.60;;;20.20;61.30;;;;;;5023435;28;43585;-59
2022/09/17 03:36:29;;;;;;;1.80;1.30;;;20.20;61.30;;;;;;5021746;28;44701;-59
2022/09/17 03:38:57;;;;;;;2.80;1.52;;;20.20;61.20;;;;;;5023181;28;43377;-59
2022/09/17 03:41:25;;;;;;;2.85;1.45;;;20.20;61.20;;;;;;5023233;28;43475;-59
2022/09/17 03:43:52;;;;;;;4.28;1.65;;;20.20;61.30;;;;;;5021823;28;43513;-59
2022/09/17 03:46:20;;;;;;;2.80;1.40;;;20.20;61.30;;;;;;5021791;28;44084;-59
2022/09/17 03:48:48;;;;;;;4.10;1.80;;;20.10;61.20;;;;;;5021918;28;43403;-59
2022/09/17 03:51:15;;;;;;;2.75;1.73;;;20.20;61.20;;;;;;5022802;28;43434;-59
2022/09/17 03:53:43;;;;;;;3.97;1.60;;;20.10;61.20;;;;;;5023294;28;43462;-59
2022/09/17 03:56:10;;;;;;;4.13;1.80;;;20.10;61.30;;;;;;5022322;28;44739;-59
2022/09/17 03:58:37;;;;;;;3.33;1.45;;;20.10;61.30;;;;;;5023438;28;43773;-59
2022/09/17 04:01:05;;;;;;;3.28;1.50;;;20.10;61.20;;;;;;5023305;28;43534;-59
2022/09/17 04:03:33;;;;;;;3.22;1.55;;;20.10;61.20;;;;;;5022463;28;43509;-59
2022/09/17 04:06:00;;;;;;;2.90;1.52;;;20.10;61.20;;;;;;5022787;28;44805;-59
2022/09/17 04:08:27;;;;;;;3.05;1.52;;;20.10;61.20;;;;;;5022934;28;43794;-59
2022/09/17 04:10:55;;;;;;;3.35;1.50;;;20.10;61.20;;;;;;5022402;28;43456;-59
2022/09/17 04:13:22;;;;;;;3.60;1.55;;;20.10;61.80;;;;;;5022342;28;43466;-59
2022/09/17 04:15:50;;;;;;;4.95;1.60;;;20.10;61.20;;;;;;5022430;28;43733;-59
2022/09/17 04:18:18;;;;;;;3.55;1.15;;;20.10;61.30;;;;;;5021506;28;43481;-59
2022/09/17 04:20:45;;;;;;;4.10;1.58;;;20.10;61.90;;;;;;5022504;28;43419;-59
2022/09/17 04:23:13;;;;;;;4.90;1.80;;;20.00;61.20;;;;;;5023055;28;43538;-59
2022/09/17 04:25:41;;;;;;;3.78;1.30;;;20.00;61.20;;;;;;5021508;28;44781;-59
2022/09/17 04:28:09;;;;;;;3.78;1.67;;;20.10;61.30;;;;;;5022712;28;43917;-59
2022/09/17 04:30:37;;;;;;;3.25;1.48;;;20.10;61.30;;;;;;5022294;28;43595;-60
2022/09/17 04:33:05;;;;;;;3.05;1.52;;;20.10;61.20;;;;;;5014593;28;43419;-59
2022/09/17 04:35:32;;;;;;;3.08;1.40;;;20.10;61.20;;;;;;5022104;28;43859;-59
2022/09/17 04:38:00;;;;;;;3.58;1.60;;;20.00;61.40;;;;;;5021992;28;43493;-59
2022/09/17 04:40:28;;;;;;;2.92;1.40;;;20.00;61.20;;;;;;5022058;28;43511;-59
2022/09/17 04:43:02;;;;;;;1.88;1.45;;;20.00;61.30;;;;;;5019962;28;43602;-59
2022/09/17 04:45:32;;;;;;;3.22;1.63;;;20.00;61.90;;;;;;5020933;28;44746;-59
2022/09/17 04:48:00;;;;;;;2.45;1.60;;;20.00;61.30;;;;;;5022237;28;43554;-59
2022/09/17 04:50:28;;;;;;;3.38;1.60;;;20.00;61.30;;;;;;5021712;28;43456;-59
2022/09/17 04:52:55;;;;;;;4.45;1.33;;;20.00;61.40;;;;;;5021751;28;43546;-59
2022/09/17 04:55:22;;;;;;;3.95;1.52;;;20.00;61.30;;;;;;5020033;28;44782;-59
2022/09/17 04:57:52;;;;;;;3.38;1.50;;;20.00;61.30;;;;;;5022089;28;43977;-58
2022/09/17 05:00:21;;;;;;;2.55;1.50;;;19.90;61.00;;;;;;5021623;28;43420;-58
2022/09/17 05:02:52;;;;;;;3.30;1.60;;;20.00;61.30;;;;;;5022287;28;43597;-59
2022/09/17 05:05:21;;;;;;;4.78;2.13;;;20.00;61.20;;;;;;5022257;28;44948;-59
2022/09/17 05:07:48;;;;;;;2.90;1.40;;;19.90;61.20;;;;;;5021847;28;43808;-59
2022/09/17 05:10:18;;;;;;;2.45;1.42;;;19.90;61.10;;;;;;5022237;28;43470;-59
2022/09/17 05:12:50;;;;;;;2.95;1.50;;;19.90;61.10;;;;;;5021687;28;43533;-59
2022/09/17 05:15:18;;;;;;;3.70;1.77;;;19.90;61.20;;;;;;5021296;28;44747;-59
2022/09/17 05:17:46;;;;;;;2.85;1.63;;;19.90;61.00;;;;;;5021953;28;43419;-59
2022/09/17 05:20:14;;;;;;;5.82;1.63;;;19.90;61.00;;;;;;5021611;28;43455;-59
2022/09/17 05:22:43;;;;;;;3.10;1.58;;;19.90;60.90;;;;;;5022013;28;43572;-59
2022/09/17 05:25:12;;;;;;;3.80;1.50;;;19.90;61.10;;;;;;5021795;28;45023;-59
2022/09/17 05:27:40;;;;;;;3.10;1.60;;;19.90;61.10;;;;;;5021071;28;43902;-59
2022/09/17 05:30:10;;;;;;;2.72;1.40;;;19.90;61.10;;;;;;5022150;28;43515;-59
2022/09/17 05:32:39;;;;;;;3.15;1.42;;;19.90;60.90;;;;;;5021628;28;43509;-59
2022/09/17 05:35:08;;;;;;;3.00;1.33;;;19.90;61.00;;;;;;5021227;28;44800;-59
2022/09/17 05:37:36;;;;;;;3.35;1.75;;;19.90;60.90;;;;;;5021613;28;43436;-59
2022/09/17 05:40:05;;;;;;;2.35;1.30;;;19.90;60.90;;;;;;5021948;28;43409;-58
2022/09/17 05:42:33;;;;;;;2.90;1.30;;;19.90;61.60;;;;;;5020814;28;43460;-59
2022/09/17 05:45:01;;;;;;;4.75;1.80;;;19.90;61.10;;;;;;5021542;28;44680;-58
2022/09/17 05:47:28;;;;;;;3.75;1.52;;;19.90;61.10;;;;;;5021245;28;44082;-59
2022/09/17 05:49:56;;;;;;;4.43;1.55;;;19.80;61.10;;;;;;5021361;28;43418;-59
2022/09/17 05:52:27;;;;;;;4.03;1.65;;;19.90;61.30;;;;;;5021722;28;43466;-59
2022/09/17 05:54:55;;;;;;;5.13;1.75;;;19.90;61.20;;;;;;5020148;28;44676;-59
2022/09/17 05:57:22;;;;;;;2.80;1.60;;;19.90;61.30;;;;;;5020280;28;43798;-58
2022/09/17 05:59:50;;;;;;;3.38;1.48;;;19.80;61.20;;;;;;5026175;28;43976;-59
2022/09/17 06:02:17;;;;;;;4.15;1.60;;;19.90;61.20;;;;;;5020866;28;43435;-58
2022/09/17 06:04:45;;;;;;;4.28;1.77;;;19.90;61.30;;;;;;5020825;28;43918;-59
2022/09/17 06:07:12;;;;;;;2.85;1.55;;;19.90;61.30;;;;;;5021294;28;43427;-59
2022/09/17 06:09:40;;;;;;;2.08;1.20;;;19.90;61.30;;;;;;5021098;28;43516;-59
2022/09/17 06:12:07;;;;;;;3.28;1.50;;;19.90;61.20;;;;;;5025120;28;43436;-59
2022/09/17 06:14:35;;;;;;;3.17;1.40;;;19.90;61.30;;;;;;5023399;28;44040;-59
2022/09/17 06:17:02;;;;;;;3.80;1.30;;;19.90;61.20;;;;;;5024273;28;43517;-59
2022/09/17 06:19:30;;;;;;;3.22;1.42;;;19.90;61.10;;;;;;5024373;28;43481;-59
2022/09/17 06:21:57;;;;;;;3.95;1.63;;;19.90;61.20;;;;;;5024647;28;43880;-59
2022/09/17 06:24:24;;;;;;;2.58;1.33;;;19.90;61.20;;;;;;5023657;28;44669;-59
2022/09/17 06:26:52;;;;;;;1.50;1.38;;;19.80;61.30;;;;;;5024023;28;43841;-59
2022/09/17 06:29:20;;;;;;;3.50;1.58;;;19.80;61.20;;;;;;5023974;28;43455;-59
2022/09/17 06:31:48;;;;;;;2.92;1.45;;;19.80;61.20;;;;;;5024039;28;43474;-59
2022/09/17 06:34:16;;;;;;;3.60;1.55;;;19.80;61.20;;;;;;5023793;28;44044;-59
2022/09/17 06:36:44;;;;;;;2.60;1.77;;;19.80;61.20;;;;;;5024026;28;43901;-59
2022/09/17 06:39:12;;;;;;;3.25;1.40;;;19.90;61.20;;;;;;5023474;28;43448;-59
2022/09/17 06:41:43;;;;;;;2.58;1.40;;;19.80;61.90;;;;;;5020046;28;43589;-58
2022/09/17 06:44:11;;;;;;;4.15;1.58;;;19.80;61.20;;;;;;5024445;28;44224;-58
2022/09/17 06:46:38;;;;;;;3.13;1.60;;;19.80;61.20;;;;;;5022461;28;43717;-58
2022/09/17 06:49:05;;;;;;;2.35;1.33;;;19.80;61.20;;;;;;5024143;28;43610;-58
2022/09/17 06:51:33;;;;;;;4.63;2.05;;;19.80;61.20;;;;;;5023062;28;43509;-58
2022/09/17 06:54:01;;;;;;;3.05;1.40;;;19.80;61.20;;;;;;5023965;28;44762;-58
2022/09/17 06:56:28;;;;;;;2.45;1.45;;;19.80;61.20;;;;;;5023340;28;43953;-58
2022/09/17 06:58:56;;;;;;;3.05;1.52;;;19.80;61.20;;;;;;5023040;28;44109;-58
2022/09/17 07:01:23;;;;;;;3.15;1.33;;;19.80;61.20;;;;;;5023637;28;43460;-58
2022/09/17 07:03:51;;;;;;;3.88;1.50;;;19.80;61.10;;;;;;5023674;28;44666;-58
2022/09/17 07:06:18;;;;;;;2.97;1.60;;;19.80;61.10;;;;;;5022273;28;43462;-58
2022/09/17 07:08:46;;;;;;;4.03;1.75;;;19.80;61.20;;;;;;5023104;28;43528;-58
2022/09/17 07:11:15;;;;;;;3.10;1.23;;;19.80;61.20;;;;;;5023529;28;43554;-58
2022/09/17 07:13:42;;;;;;;1.92;1.20;;;19.80;61.20;;;;;;5023078;28;44719;-58
2022/09/17 07:16:11;;;;;;;2.65;1.35;;;19.80;61.20;;;;;;5023308;28;43963;-58
2022/09/17 07:18:39;;;;;;;3.13;1.67;;;19.80;61.20;;;;;;5022632;28;43446;-58
2022/09/17 07:21:08;;;;;;;2.63;1.50;;;19.80;61.10;;;;;;5022192;28;43483;-58
2022/09/17 07:23:36;;;;;;;4.10;1.55;;;19.80;61.20;;;;;;5022942;28;44783;-58
2022/09/17 07:26:07;;;;;;;2.00;1.50;;;19.80;61.20;;;;;;5022159;28;43432;-58
2022/09/17 07:28:37;;;;;;;4.00;1.83;;;19.80;61.20;;;;;;5021818;28;43372;-58
2022/09/17 07:31:05;;;;;;;3.65;1.23;;;19.80;61.40;;;;;;5023683;28;43498;-58
2022/09/17 07:33:34;;;;;;;3.13;1.75;;;19.80;61.20;;;;;;5022400;28;44955;-58
2022/09/17 07:36:07;;;;;;;12.48;7.70;;;19.80;61.10;;;;;;5011316;28;43807;-58
2022/09/17 07:38:34;;;;;;;14.93;8.88;;;19.80;61.50;;;;;;5023069;28;43393;-58
2022/09/17 07:41:04;;;;;;;12.73;8.20;;;19.80;61.50;;;;;;5022949;28;43475;-58
2022/09/17 07:43:34;;;;;;;13.02;7.82;;;19.90;61.50;;;;;;5022140;28;44959;-58
2022/09/17 07:46:03;;;;;;;11.27;7.40;;;19.90;61.40;;;;;;5022731;28;43686;-58
2022/09/17 07:48:31;;;;;;;9.73;7.13;;;19.90;61.40;;;;;;5021865;28;43386;-59
2022/09/17 07:50:59;;;;;;;10.13;6.63;;;20.00;61.30;;;;;;5023211;28;43453;-58
2022/09/17 07:53:27;;;;;;;10.13;6.35;;;20.10;61.20;;;;;;5022953;28;44802;-58
2022/09/17 07:55:56;;;;;;;10.05;6.05;;;20.20;61.00;;;;;;5018162;28;43407;-59
2022/09/17 07:58:32;;;;;;;13.20;5.68;;;20.30;61.00;;;;;;5027964;28;44617;-59
2022/09/17 08:01:07;;;;;;;9.68;5.90;;;20.30;60.90;;;;;;5026519;28;43523;-59
2022/09/17 08:03:38;;;;;;;6.78;4.45;;;20.40;60.90;;;;;;5022011;28;43902;-59
2022/09/17 08:06:16;;;;;;;9.02;5.18;;;20.50;60.90;;;;;;5022351;28;43480;-60
2022/09/17 08:08:44;;;;;;;9.68;5.40;;;20.60;60.60;;;;;;5022314;28;43340;-59
2022/09/17 08:11:14;;;;;;;11.30;4.22;;;20.80;60.40;;;;;;5021347;28;43641;-60
2022/09/17 08:13:58;;;;;;;7.43;4.18;;;20.90;60.70;;;;;;5021463;28;43878;-61
2022/09/17 08:16:26;;;;;;;9.40;4.28;;;21.00;60.70;;;;;;5021555;28;43679;-60
2022/09/17 08:18:56;;;;;;;9.73;4.13;;;21.10;60.50;;;;;;5022548;28;43466;-60
2022/09/17 08:21:24;;;;;;;11.65;4.10;;;21.20;60.20;;;;;;5022432;28;43592;-61
2022/09/17 08:23:51;;;;;;;8.07;3.55;;;21.30;59.90;;;;;;5021925;28;43794;-60
2022/09/17 08:26:21;;;;;;;8.27;3.63;;;21.40;59.60;;;;;;5022258;28;44182;-60
2022/09/17 08:28:53;;;;;;;6.88;3.55;;;21.60;59.70;;;;;;5022186;28;43438;-61
2022/09/17 08:31:22;;;;;;;7.13;3.20;;;21.60;59.70;;;;;;5021942;28;43413;-63
2022/09/17 08:33:50;;;;;;;5.20;2.85;;;21.80;59.60;;;;;;5022176;28;43816;-61
2022/09/17 08:36:21;;;;;;;6.30;3.13;;;21.80;59.40;;;;;;5021912;28;43354;-61
2022/09/17 08:38:52;;;;;;;5.85;2.67;;;21.90;59.40;;;;;;5020674;28;43471;-60
2022/09/17 08:41:29;;;;;;;5.90;2.67;;;22.00;59.20;;;;;;5018237;28;43988;-61
2022/09/17 08:44:03;;;;;;;5.97;2.70;;;22.10;59.10;;;;;;5017270;28;44707;-62
2022/09/17 08:46:38;;;;;;;4.70;2.55;;;22.30;58.90;;;;;;5021504;28;43693;-64
2022/09/17 08:49:30;;;;;;;6.72;2.95;;;22.40;58.80;;;;;;5022166;28;43430;-60
2022/09/17 08:52:22;;;;;;;6.80;2.38;;;22.60;58.40;;;;;;5021849;28;43569;-60
2022/09/17 08:55:10;;;;;;;4.55;2.70;;;22.80;58.20;;;;;;5019796;28;44011;-59
2022/09/17 08:58:14;;;;;;;5.30;2.55;;;22.90;57.80;;;;;;5021330;28;43384;-60
2022/09/17 09:01:06;;;;;;;6.85;2.38;;;23.10;57.30;;;;;;5014941;28;43415;-59
2022/09/17 09:03:45;;;;;;;5.25;2.47;;;23.20;57.00;;;;;;5021784;28;43467;-59
2022/09/17 09:06:14;;;;;;;6.40;2.28;;;23.20;56.80;;;;;;5021252;28;43800;-59
2022/09/17 09:08:46;;;;;;;5.20;2.03;;;23.30;56.70;;;;;;5017731;28;43779;-59
2022/09/17 09:11:17;;;;;;;5.55;2.28;;;23.30;56.80;;;;;;5021583;28;43454;-59
2022/09/17 09:13:54;;;;;;;5.63;2.00;;;23.30;56.90;;;;;;5020392;28;43551;-59
2022/09/17 09:16:25;;;;;;;5.72;2.05;;;23.20;56.90;;;;;;5020154;28;43880;-59
2022/09/17 09:18:55;;;;;;;5.40;1.98;;;23.20;57.00;;;;;;5020189;28;43466;-59
2022/09/17 09:21:27;;;;;;;7.30;2.00;;;23.10;57.10;;;;;;5020662;28;43502;-59
2022/09/17 09:24:13;;;;;;;4.38;2.08;;;23.10;57.10;;;;;;5021203;28;43486;-60
2022/09/17 09:26:56;;;;;;;4.15;1.60;;;23.10;57.10;;;;;;5017519;28;43792;-59
2022/09/17 09:29:39;;;;;;;4.05;2.10;;;23.00;57.20;;;;;;5020380;28;43451;-59
2022/09/17 09:32:35;;;;;;;6.88;2.17;;;23.00;57.40;;;;;;5019279;28;43531;-59
2022/09/17 09:35:17;;;;;;;5.10;2.50;;;22.90;57.80;;;;;;5052692;28;43441;-59
2022/09/17 09:38:13;;;;;;;5.03;2.28;;;22.90;58.00;;;;;;5020350;28;43787;-59
2022/09/17 09:40:44;;;;;;;5.43;2.50;;;22.90;58.00;;;;;;5007152;28;44003;-59
2022/09/17 09:43:21;;;;;;;4.10;2.67;;;22.90;57.80;;;;;;5022633;28;43431;-59
2022/09/17 09:45:54;;;;;;;5.05;2.40;;;22.90;57.80;;;;;;5020970;28;43447;-58
2022/09/17 09:48:44;;;;;;;5.35;2.35;;;23.00;57.70;;;;;;5022664;28;43803;-59
2022/09/17 09:51:32;;;;;;;2.90;1.95;;;23.00;57.60;;;;;;5025690;28;43651;-58
2022/09/17 09:54:19;;;;;;;3.80;2.00;;;23.00;57.30;;;;;;5024074;28;43476;-58
2022/09/17 09:57:07;;;;;;;3.67;2.10;;;23.10;57.40;;;;;;5021580;28;43487;-58
2022/09/17 09:59:35;;;;;;;5.20;2.35;;;23.00;57.40;;;;;;5022978;28;44144;-58
2022/09/17 10:02:03;;;;;;;3.53;1.95;;;23.10;57.50;;;;;;5023622;28;43738;-58
2022/09/17 10:04:31;;;;;;;3.00;1.70;;;23.10;57.30;;;;;;5023495;28;43430;-58
2022/09/17 10:07:10;;;;;;;3.92;1.83;;;23.00;57.00;;;;;;5023552;28;43530;-58
2022/09/17 10:09:43;;;;;;;4.85;2.10;;;23.00;57.10;;;;;;5022905;28;43944;-58
2022/09/17 10:12:20;;;;;;;3.83;1.83;;;23.00;57.10;;;;;;5023903;28;43444;-58
2022/09/17 10:14:48;;;;;;;4.60;1.90;;;23.00;57.20;;;;;;5023421;28;43427;-58
2022/09/17 10:17:23;;;;;;;3.63;1.88;;;22.90;57.40;;;;;;5019423;28;43452;-58
2022/09/17 10:20:09;;;;;;;4.47;1.92;;;22.90;57.60;;;;;;5023279;28;44737;-58
2022/09/17 10:22:47;;;;;;;5.22;1.90;;;22.90;57.50;;;;;;5021768;28;43499;-58
2022/09/17 10:25:32;;;;;;;3.95;2.25;;;22.80;57.50;;;;;;5037970;28;43498;-58
2022/09/17 10:28:04;;;;;;;4.30;1.88;;;22.80;57.60;;;;;;5023801;28;43616;-58
2022/09/17 10:30:34;;;;;;;3.17;1.80;;;22.80;57.60;;;;;;5022521;28;44060;-57
2022/09/17 10:33:24;;;;;;;3.58;2.08;;;22.80;57.60;;;;;;5023739;28;43483;-58
2022/09/17 10:36:08;;;;;;;3.65;1.95;;;22.80;57.70;;;;;;5023605;28;43439;-58
2022/09/17 10:38:39;;;;;;;3.42;1.90;;;22.80;57.80;;;;;;5022079;28;43500;-57
2022/09/17 10:41:24;;;;;;;4.03;2.10;;;22.80;58.00;;;;;;5021035;28;44045;-58
2022/09/17 10:43:52;;;;;;;3.15;2.20;;;22.70;57.90;;;;;;5022911;28;43482;-58
2022/09/17 10:46:29;;;;;;;4.13;2.00;;;22.70;57.90;;;;;;5022387;28;43452;-58
2022/09/17 10:49:34;;;;;;;4.15;2.28;;;22.70;57.90;;;;;;5034232;28;43485;-58
2022/09/17 10:52:11;;;;;;;3.85;2.40;;;22.70;57.90;;;;;;5022610;28;44079;-58
2022/09/17 10:55:09;;;;;;;5.32;3.50;;;22.70;57.90;;;;;;5019945;28;43947;-58
2022/09/17 10:57:44;;;;;;;6.80;3.67;;;22.70;57.80;;;;;;5021689;28;43564;-58
2022/09/17 11:00:18;;;;;;;6.82;4.25;;;22.70;57.90;;;;;;5021953;28;44072;-58
2022/09/17 11:03:21;;;;;;;8.23;4.50;;;22.70;57.80;;;;;;5021731;28;43863;-58
2022/09/17 11:06:07;;;;;;;7.25;3.90;;;22.70;57.70;;;;;;5022988;28;43523;-58
2022/09/17 11:09:15;;;;;;;6.97;4.00;;;22.70;57.70;;;;;;5015391;28;43456;-58
2022/09/17 11:12:04;;;;;;;6.30;3.65;;;22.60;57.60;;;;;;5022993;28;43518;-58
2022/09/17 11:14:49;;;;;;;5.57;3.17;;;22.60;57.70;;;;;;5022798;28;44041;-58
2022/09/17 11:17:39;;;;;;;5.80;3.17;;;22.60;57.60;;;;;;5023797;28;43410;-58
2022/09/17 11:20:22;;;;;;;6.20;3.58;;;22.50;57.60;;;;;;5022075;28;44643;-58
2022/09/17 11:23:28;;;;;;;3.95;2.85;;;22.50;57.60;;;;;;5023837;28;43483;-58
2022/09/17 11:26:15;;;;;;;7.03;3.90;;;22.50;57.70;;;;;;5021554;28;44992;-58
2022/09/17 11:28:58;;;;;;;5.82;3.75;;;22.50;57.70;;;;;;5025558;28;43451;-58
2022/09/17 11:31:42;;;;;;;6.55;3.20;;;22.50;57.80;;;;;;5023404;28;43477;-58
2022/09/17 11:34:41;;;;;;;6.35;3.50;;;22.50;57.70;;;;;;5022973;28;43427;-58
2022/09/17 11:37:25;;;;;;;7.90;3.50;;;22.50;57.70;;;;;;5023005;28;45216;-58
2022/09/17 11:39:57;;;;;;;6.70;2.92;;;22.50;58.20;;;;;;5022639;28;43533;-58
2022/09/17 11:42:31;;;;;;;6.72;2.92;;;22.40;57.60;;;;;;5020320;28;43437;-57
2022/09/17 11:45:09;;;;;;;6.03;2.95;;;22.50;57.60;;;;;;5023447;28;43498;-58
2022/09/17 11:47:51;;;;;;;6.05;2.88;;;22.40;57.70;;;;;;5021174;28;43787;-57
2022/09/17 11:50:35;;;;;;;4.88;2.80;;;22.40;57.60;;;;;;5022995;28;43586;-58
2022/09/17 11:53:33;;;;;;;4.32;2.65;;;22.40;57.60;;;;;;5023340;28;43391;-57
2022/09/17 11:56:22;;;;;;;5.70;2.58;;;22.40;57.50;;;;;;5016677;28;43519;-57
2022/09/17 11:58:53;;;;;;;7.07;2.95;;;22.40;57.90;;;;;;5022172;28;43878;-58
2022/09/17 12:01:43;;;;;;;4.20;2.22;;;22.40;58.00;;;;;;5021353;28;43580;-58
2022/09/17 12:04:41;;;;;;;4.88;2.50;;;22.40;57.80;;;;;;5023387;28;43506;-57
2022/09/17 12:07:25;;;;;;;5.30;2.47;;;22.30;57.90;;;;;;5022532;28;43416;-58
2022/09/17 12:10:10;;;;;;;4.57;2.60;;;22.30;58.10;;;;;;5054557;28;43698;-57
2022/09/17 12:12:46;;;;;;;4.32;2.13;;;22.30;58.00;;;;;;5022087;28;43467;-58
2022/09/17 12:15:23;;;;;;;3.10;2.00;;;22.20;58.00;;;;;;5011543;28;43470;-58
2022/09/17 12:18:12;;;;;;;3.78;1.90;;;22.20;57.90;;;;;;5022639;28;43364;-58
2022/09/17 12:21:00;;;;;;;6.15;2.40;;;22.20;57.90;;;;;;5021857;28;44682;-58
2022/09/17 12:23:46;;;;;;;4.60;2.30;;;22.20;58.00;;;;;;5020898;28;43432;-58
2022/09/17 12:26:28;;;;;;;4.80;1.80;;;22.20;58.10;;;;;;5022716;28;43567;-58
2022/09/17 12:29:19;;;;;;;4.30;1.90;;;22.10;58.30;;;;;;5021305;28;43435;-57
2022/09/17 12:31:52;;;;;;;;;;;22.10;58.30;;;;;;5023102;28;43808;-58
2022/09/17 12:35:02;;;;;;;3.40;1.80;;;22.10;58.30;;;;;;5015708;28;43990;-58
2022/09/17 12:38:04;;;;;;;5.53;2.13;;;22.10;58.40;;;;;;5014844;28;43518;-58
2022/09/17 12:41:02;;;;;;;5.15;2.20;;;22.10;58.50;;;;;;5019654;28;43652;-57
2022/09/17 12:43:38;;;;;;;4.13;1.90;;;22.10;58.60;;;;;;5019719;28;44676;-58
2022/09/17 12:46:16;;;;;;;3.85;1.80;;;22.10;58.60;;;;;;5021046;28;43753;-58
2022/09/17 12:48:44;;;;;;;5.57;1.98;;;22.20;58.60;;;;;;5019939;28;44019;-58
2022/09/17 12:51:53;;;;;;;6.28;2.05;;;22.20;58.60;;;;;;5019595;28;43450;-58
2022/09/17 12:54:30;;;;;;;3.53;1.60;;;22.20;58.60;;;;;;5020348;28;44971;-57
2022/09/17 12:57:01;;;;;;;4.88;2.17;;;22.10;58.50;;;;;;5021538;28;43448;-58
2022/09/17 12:59:32;;;;;;;3.60;1.77;;;22.10;58.30;;;;;;5020128;28;43453;-57
2022/09/17 13:02:19;;;;;;;3.88;1.80;;;22.10;58.30;;;;;;5021522;28;43500;-58
2022/09/17 13:05:02;;;;;;;3.60;1.67;;;22.10;58.40;;;;;;5016996;28;44979;-58
2022/09/17 13:07:39;;;;;;;5.03;1.92;;;22.10;58.50;;;;;;5021201;28;44144;-60
2022/09/17 13:10:57;;;;;;;4.53;1.75;;;22.10;59.00;;;;;;5021008;28;43570;-59
2022/09/17 13:13:30;;;;;;;3.75;1.70;;;22.10;58.80;;;;;;5017372;28;43436;-59
2022/09/17 13:16:02;;;;;;;2.90;1.60;;;22.10;58.80;;;;;;5019108;28;44722;-58
2022/09/17 13:18:53;;;;;;;5.88;1.83;;;22.10;58.80;;;;;;5019383;28;43514;-57
2022/09/17 13:22:24;;;;;;;5.20;1.90;;;22.10;58.80;;;;;;5021101;28;43391;-57
2022/09/17 13:25:02;;;;;;;5.72;1.77;;;22.10;58.80;;;;;;5025218;28;43444;-57
2022/09/17 13:27:29;;;;;;;4.57;1.95;;;22.10;58.80;;;;;;5020560;28;44073;-57
2022/09/17 13:29:58;;;;;;;2.80;1.50;;;22.10;58.70;;;;;;5021899;28;43417;-57
2022/09/17 13:32:31;;;;;;;4.80;1.60;;;22.10;58.50;;;;;;5020989;28;43404;-57